Latest Weather Observations for Morawa Airport

IDW60801

Issued at 9:32 pm WST Monday 6 July 2015 (issued every 30 minutes, with the page automatically refreshed every 10 minutes)

About weather observations | Map of weather stations | Latest weather observations for WA | Other Formats
Station Details ID: 008296 Name: MORAWA AIRPORT Lat: -29.20 Lon: 116.02 Height: 271.4 m
Data from the previous 72 hours. | See also: Recent months at Morawa Airport
Date/Time
WST
Temp
°C
App
Temp
°C
Dew
Point
Rel
Hum
%
Delta-T
°C
Wind Press
QNH
hPa
Press
MSL
hPa
Rain
since 9 am
mm
Dir
 
Spd
km/h
Gust
km/h
Spd
kts
Gust
kts
06/09:30pm 10.4 9.8 7.3 81 1.5 CALM 0 0 0 0 1022.2 1022.2 0.0
06/09:00pm 11.3 10.7 7.6 78 1.8 CALM 0 2 0 1 1022.4 1022.4 0.0
06/08:30pm 12.4 11.1 7.7 73 2.3 SW 4 6 2 3 1022.2 1022.2 0.0
06/08:00pm 13.3 11.7 8.0 70 2.6 SSW 6 7 3 4 1022.1 1022.1 0.0
06/07:30pm 13.1 11.3 8.0 71 2.6 SSW 7 7 4 4 1022.2 1022.2 0.0
06/07:00pm 13.3 11.7 8.0 70 2.6 SSW 6 6 3 3 1022.0 1022.0 0.0
06/06:30pm 13.6 12.3 7.8 68 2.9 SSW 4 4 2 2 1021.9 1021.9 0.0
06/06:00pm 15.4 14.1 7.7 60 3.9 SSW 4 4 2 2 1021.6 1021.6 0.0
06/05:30pm 17.5 16.2 7.5 52 5.1 SSW 4 4 2 2 1021.5 1021.5 0.0
06/05:00pm 18.8 17.5 7.6 48 5.8 SSE 4 7 2 4 1021.4 1021.3 0.0
06/04:30pm 19.5 18.5 7.3 45 6.3 ESE 2 6 1 3 1021.4 1021.3 0.0
06/04:00pm 19.6 18.2 7.4 45 6.3 ESE 4 6 2 3 1021.4 1021.3 0.0
06/03:30pm 19.8 18.4 7.2 44 6.5 E 4 7 2 4 1021.4 1021.3 0.0
06/03:00pm 19.7 18.6 7.1 44 6.5 SE 2 4 1 2 1021.4 1021.3 0.0
06/02:30pm 19.3 18.2 6.8 44 6.4 SSE 2 4 1 2 1021.4 1021.3 0.0
06/02:00pm 19.3 17.8 8.3 49 5.8 SE 6 9 3 5 1021.5 1021.5 0.0
06/01:30pm 19.4 18.2 9.6 53 5.3 ESE 6 9 3 5 1021.5 1021.5 0.0
06/01:00pm 18.7 17.6 10.0 57 4.7 SSE 6 9 3 5 1021.9 1021.9 0.0
06/12:30pm 18.5 17.9 10.3 59 4.4 ENE 4 7 2 4 1022.4 1022.4 0.0
06/12:00pm 18.5 18.7 11.8 65 3.7 E 2 11 1 6 1023.0 1023.0 0.0
06/11:30am 17.4 16.8 11.7 69 3.2 ENE 6 9 3 5 1023.3 1023.3 0.0
06/11:00am 16.6 16.2 12.4 76 2.3 E 6 9 3 5 1023.7 1023.7 0.0
06/10:30am 15.7 15.4 12.6 82 1.7 NE 6 7 3 4 1023.9 1023.9 0.0
06/10:00am 15.0 15.6 13.0 88 1.1 SE 2 6 1 3 1024.0 1024.0 0.0
06/09:30am 12.7 13.2 12.7 100 0.0 SSW 2 2 1 1 1024.1 1024.1 0.0
06/09:00am 10.8 11.1 10.8 100 0.0 CALM 0 0 0 0 1023.8 1023.8 0.0
06/08:30am 8.8 8.5 8.8 100 0.0 CALM 0 0 0 0 1023.6 1023.6 0.0
06/08:00am 7.8 7.3 7.8 100 0.0 CALM 0 0 0 0 1023.3 1023.3 0.0
06/07:30am 6.9 6.2 6.9 100 0.0 CALM 0 0 0 0 1023.1 1023.1 0.0
06/07:00am 6.6 5.8 6.6 100 0.0 CALM 0 0 0 0 1022.9 1022.9 0.0
06/06:30am 6.4 5.6 6.4 100 0.0 CALM 0 0 0 0 1022.6 1022.6 0.0
06/06:00am 6.3 5.5 6.3 100 0.0 CALM 0 0 0 0 1022.3 1022.3 0.0
06/05:30am 6.1 5.2 6.1 100 0.0 CALM 0 0 0 0 1022.3 1022.3 0.0
06/05:00am 6.3 5.5 6.3 100 0.0 CALM 0 0 0 0 1022.2 1022.2 0.0
06/04:30am 6.8 6.1 6.8 100 0.0 CALM 0 0 0 0 1022.1 1022.1 0.0
06/04:00am 7.1 6.4 7.1 100 0.0 CALM 0 0 0 0 1022.1 1022.1 0.0
06/03:30am 7.5 6.9 7.5 100 0.0 CALM 0 0 0 0 1022.2 1022.2 0.0
06/03:00am 7.7 7.2 7.7 100 0.0 CALM 0 0 0 0 1022.3 1022.3 0.0
06/02:30am 7.6 7.0 7.6 100 0.0 CALM 0 0 0 0 1022.3 1022.3 0.0
06/02:00am 8.1 7.7 8.1 100 0.0 CALM 0 6 0 3 1022.4 1022.4 0.0
06/01:30am 8.5 8.2 8.5 100 0.0 CALM 0 2 0 1 1022.5 1022.5 0.0
06/01:00am 8.2 7.8 8.2 100 0.0 CALM 0 0 0 0 1022.6 1022.6 0.0
06/12:30am 8.7 8.4 8.7 100 0.0 CALM 0 0 0 0 1022.8 1022.8 0.0
06/12:00am 9.5 8.6 9.4 99 0.1 SW 4 4 2 2 1022.8 1022.8 0.0
 
Date/Time
WST
Temp
°C
App
Temp
°C
Dew
Point
Rel
Hum
%
Delta-T
°C
Wind Press
QNH
hPa
Press
MSL
hPa
Rain
since 9 am
mm
Dir
 
Spd
km/h
Gust
km/h
Spd
kts
Gust
kts
05/11:30pm 10.4 9.3 9.8 96 0.3 SSW 6 6 3 3 1022.9 1022.9 0.0
05/11:00pm 11.1 10.5 10.3 95 0.4 SW 4 6 2 3 1023.0 1023.0 0.0
05/10:30pm 11.4 10.6 9.8 90 0.8 SSW 4 6 2 3 1022.9 1022.9 0.0
05/10:00pm 12.4 11.3 10.0 85 1.2 SSW 6 6 3 3 1022.9 1022.9 0.0
05/09:30pm 13.1 12.0 9.9 81 1.7 SSW 6 6 3 3 1023.0 1023.0 0.0
05/09:00pm 13.9 12.6 9.9 77 2.1 SSW 7 9 4 5 1023.0 1023.0 0.0
05/08:30pm 14.7 12.3 9.9 73 2.5 SSW 13 17 7 9 1022.9 1022.9 0.0
05/08:00pm 12.0 10.5 8.3 78 1.8 SSW 6 7 3 4 1022.6 1022.6 0.0
05/07:30pm 13.0 12.2 8.1 72 2.5 SSW 2 6 1 3 1022.4 1022.4 0.0
05/07:00pm 13.1 11.9 8.0 71 2.5 SSW 4 6 2 3 1022.1 1022.1 0.0
05/06:30pm 14.2 13.8 8.4 68 3.0 CALM 0 0 0 0 1021.8 1021.8 0.0
05/06:00pm 15.9 15.2 8.4 61 3.8 SE 2 4 1 2 1021.4 1021.3 0.0
05/05:30pm 17.3 16.1 8.2 55 4.7 SSE 4 6 2 3 1021.5 1021.5 0.0
05/05:00pm 18.3 17.4 7.7 50 5.4 SSE 2 6 1 3 1021.4 1021.3 0.0
05/04:30pm 20.0 18.3 7.4 44 6.5 WSW 6 11 3 6 1021.4 1021.3 0.0
05/04:00pm 20.1 19.1 7.5 44 6.5 SSW 2 4 1 2 1021.3 1021.2 0.0
05/03:30pm 20.0 18.1 7.4 44 6.5 WSW 7 19 4 10 1021.1 1021.1 0.0
05/03:00pm 19.9 19.2 8.6 48 6.0 W 2 6 1 3 1021.3 1021.2 0.0
05/02:30pm 19.1 17.0 8.1 49 5.7 SW 9 15 5 8 1021.5 1021.5 0.0
05/02:00pm 19.6 18.7 9.2 51 5.5 W 4 7 2 4 1021.6 1021.6 0.0
05/01:30pm 17.9 16.9 9.0 56 4.7 W 4 6 2 3 1021.8 1021.8 0.0
05/01:00pm 18.0 17.9 9.4 57 4.6 CALM 0 6 0 3 1022.2 1022.2 0.0
05/12:30pm 18.6 18.5 10.9 61 4.2 NE 2 7 1 4 1022.4 1022.4 0.0
05/12:00pm 17.7 17.2 10.8 64 3.7 SE 4 9 2 5 1022.9 1022.9 0.0
05/11:30am 17.4 17.2 11.9 70 3.1 ENE 4 11 2 6 1023.4 1023.4 0.0
05/11:00am 16.6 16.8 12.9 79 2.1 NE 4 9 2 5 1023.7 1023.7 0.0
05/10:30am 15.7 15.7 13.7 88 1.1 NNE 6 7 3 4 1023.9 1023.9 0.0
05/10:00am 13.9 14.4 13.9 100 0.0 N 4 6 2 3 1024.1 1024.1 0.0
05/09:30am 12.4 12.4 12.4 100 0.0 NNE 4 6 2 3 1024.1 1024.1 0.0
05/09:00am 11.4 11.5 11.4 100 0.0 WNW 2 4 1 2 1024.0 1024.0 0.0
05/08:30am 10.2 10.3 10.2 100 0.0 CALM 0 2 0 1 1023.8 1023.8 0.0
05/08:00am 8.5 8.2 8.5 100 0.0 CALM 0 0 0 0 1023.5 1023.5 0.0
05/07:30am 7.1 6.4 7.1 100 0.0 CALM 0 0 0 0 1023.1 1023.1 0.0
05/07:00am 7.2 6.6 7.2 100 0.0 CALM 0 0 0 0 1022.8 1022.8 0.0
05/06:30am 7.5 6.9 7.5 100 0.0 CALM 0 0 0 0 1022.7 1022.7 0.0
05/06:00am 7.5 5.8 7.5 100 0.0 WNW 6 6 3 3 1022.3 1022.3 0.0
05/05:30am 7.6 6.3 7.6 100 0.0 WNW 4 6 2 3 1022.2 1022.2 0.0
05/05:00am 7.2 6.6 7.2 100 0.0 CALM 0 0 0 0 1022.1 1022.1 0.0
05/04:30am 7.0 6.3 7.0 100 0.0 CALM 0 0 0 0 1022.1 1022.1 0.0
05/04:00am 7.5 6.9 7.5 100 0.0 CALM 0 0 0 0 1022.2 1022.2 0.0
05/03:30am 8.0 7.5 8.0 100 0.0 CALM 0 0 0 0 1022.3 1022.3 0.0
05/03:00am 8.5 7.8 8.5 100 0.0 SSW 2 4 1 2 1022.4 1022.4 0.0
05/02:30am 8.8 7.4 8.8 100 0.0 SSW 6 7 3 4 1022.3 1022.3 0.0
05/02:00am 9.3 8.4 9.3 100 0.0 SW 4 6 2 3 1022.6 1022.6 0.0
05/01:30am 9.1 8.2 9.1 100 0.0 WSW 4 6 2 3 1022.7 1022.7 0.0
05/01:00am 9.5 9.0 9.5 100 0.0 SSW 2 6 1 3 1022.7 1022.7 0.0
05/12:30am 10.2 10.3 10.2 100 0.0 CALM 0 0 0 0 1022.7 1022.7 0.0
05/12:00am 10.5 10.3 10.5 100 0.0 SSW 2 4 1 2 1022.9 1022.9 0.0
 
Date/Time
WST
Temp
°C
App
Temp
°C
Dew
Point
Rel
Hum
%
Delta-T
°C
Wind Press
QNH
hPa
Press
MSL
hPa
Rain
since 9 am
mm
Dir
 
Spd
km/h
Gust
km/h
Spd
kts
Gust
kts
04/11:30pm 11.3 10.6 11.3 100 0.0 S 6 6 3 3 1023.1 1023.1 0.0
04/11:00pm 11.5 11.2 11.5 100 0.0 S 4 6 2 3 1023.2 1023.2 0.0
04/10:30pm 13.1 12.7 13.1 100 0.0 SSW 7 11 4 6 1023.3 1023.3 0.0
04/10:00pm 13.5 13.5 13.5 100 0.0 SSW 6 11 3 6 1023.4 1023.4 0.0
04/09:30pm 14.3 13.0 13.8 97 0.3 SW 13 19 7 10 1023.5 1023.5 0.0
04/09:00pm 14.1 13.5 13.6 97 0.3 SW 9 13 5 7 1023.6 1023.6 0.0
04/08:30pm 14.3 13.8 12.7 90 0.9 SW 7 11 4 6 1023.4 1023.4 0.0
04/08:00pm 12.0 12.3 10.9 93 0.6 CALM 0 0 0 0 1023.1 1023.1 0.0
04/07:30pm 12.4 12.6 10.5 88 1.0 CALM 0 0 0 0 1022.8 1022.8 0.0
04/07:00pm 13.1 13.3 10.6 85 1.3 CALM 0 0 0 0 1022.6 1022.6 0.0
04/06:30pm 14.2 14.4 10.6 79 1.9 CALM 0 0 0 0 1022.5 1022.5 0.0
04/06:00pm 15.8 15.7 10.8 72 2.7 WSW 2 2 1 1 1022.4 1022.4 0.0
04/05:30pm 18.0 17.5 10.6 62 4.0 WSW 4 4 2 2 1022.3 1022.3 0.0
04/05:00pm 19.3 18.1 10.3 56 4.9 WSW 7 13 4 7 1022.3 1022.3 0.0
04/04:30pm 19.2 17.8 11.0 59 4.5 WSW 9 15 5 8 1022.3 1022.3 0.0
04/04:00pm 20.0 19.2 11.8 59 4.6 WSW 7 13 4 7 1022.2 1022.2 0.0
04/03:30pm 19.9 19.3 12.2 61 4.4 WSW 7 11 4 6 1022.1 1022.1 0.0
04/03:00pm 20.3 19.9 12.5 61 4.4 W 6 9 3 5 1022.1 1022.1 0.0
04/02:30pm 19.0 18.1 12.5 66 3.7 SW 9 15 5 8 1022.2 1022.2 0.0
04/02:00pm 19.3 19.4 12.6 65 3.8 SW 4 11 2 6 1022.3 1022.3 0.0
04/01:30pm 18.9 19.5 13.1 69 3.3 WSW 2 11 1 6 1022.4 1022.4 0.0
04/01:00pm 17.9 18.8 14.0 78 2.2 SSW 2 6 1 3 1022.8 1022.8 0.0
04/12:30pm 17.2 18.0 14.8 86 1.4 SE 4 6 2 3 1023.4 1023.4 0.0
04/12:00pm 16.5 18.3 16.5 100 0.0 NNW 2 4 1 2 1024.0 1024.0 0.0
04/11:30am 14.6 15.3 14.6 100 0.0 E 4 6 2 3 1024.4 1024.4 0.0
04/11:00am 14.3 15.3 14.3 100 0.0 SSE 2 6 1 3 1024.7 1024.8 0.0
04/10:30am 13.9 14.0 13.9 100 0.0 S 6 7 3 4 1025.1 1025.1 0.0
04/10:00am 13.4 13.3 13.4 100 0.0 SE 6 7 3 4 1024.9 1025.0 0.0
04/09:30am 12.7 12.8 12.7 100 0.0 SSE 4 7 2 4 1024.9 1025.0 0.0
04/09:00am 12.3 12.6 12.3 100 0.0 SSE 2 4 1 2 1024.6 1024.7 0.0
04/08:30am 11.8 12.4 11.8 100 0.0 CALM 0 2 0 1 1024.5 1024.6 0.0
04/08:00am 11.5 12.0 11.5 100 0.0 CALM 0 0 0 0 1024.3 1024.3 0.0
04/07:30am 11.4 11.8 11.4 100 0.0 CALM 0 0 0 0 1024.0 1024.0 0.0
04/07:00am 11.3 11.3 11.3 100 0.0 SSW 2 4 1 2 1023.7 1023.7 0.0
04/06:30am 11.3 11.3 11.3 100 0.0 SSW 2 6 1 3 1023.6 1023.6 0.0
04/06:00am 11.1 11.1 11.1 100 0.0 SSW 2 4 1 2 1023.5 1023.5 0.0
04/05:30am 11.3 11.3 11.3 100 0.0 SSW 2 4 1 2 1023.5 1023.5 0.0
04/05:00am 11.4 11.5 11.4 100 0.0 SSW 2 4 1 2 1023.2 1023.2 0.0
04/04:30am 11.6 11.3 11.6 100 0.0 SSW 4 6 2 3 1023.4 1023.4 0.0
04/04:00am 11.7 11.5 11.7 100 0.0 SSW 4 6 2 3 1023.3 1023.3 0.0
04/03:30am 12.3 12.6 12.3 100 0.0 SSW 2 6 1 3 1023.5 1023.5 0.0
04/03:00am 12.3 12.3 12.3 100 0.0 SSW 4 6 2 3 1023.6 1023.6 0.0
04/02:30am 11.7 11.1 11.7 100 0.0 SSW 6 7 3 4 1023.6 1023.6 0.0
04/02:00am 11.6 11.3 11.6 100 0.0 WSW 4 4 2 2 1023.8 1023.8 0.0
04/01:30am 11.8 11.6 11.8 100 0.0 WSW 4 4 2 2 1023.8 1023.8 0.0
04/01:00am 12.7 12.8 12.7 100 0.0 WSW 4 4 2 2 1024.0 1024.0 0.0
04/12:30am 13.1 12.9 13.1 100 0.0 SSW 6 9 3 5 1024.0 1024.0 0.0
04/12:00am 13.4 13.1 13.4 100 0.0 SW 7 9 4 5 1024.1 1024.1 0.0
 
Date/Time
WST
Temp
°C
App
Temp
°C
Dew
Point
Rel
Hum
%
Delta-T
°C
Wind Press
QNH
hPa
Press
MSL
hPa
Rain
since 9 am
mm
Dir
 
Spd
km/h
Gust
km/h
Spd
kts
Gust
kts
03/11:30pm 13.8 13.7 13.8 100 0.0 SW 7 9 4 5 1024.2 1024.2 0.0
03/11:00pm 14.1 14.1 14.1 100 0.0 SW 7 9 4 5 1024.1 1024.1 0.0
03/10:30pm 14.2 14.2 13.7 97 0.3 SW 6 9 3 5 1024.1 1024.1 0.0
03/10:00pm 14.5 14.4 13.4 93 0.6 SW 6 7 3 4 1024.1 1024.1 0.0

Other Formats:

Comma delimited format used in spreadsheet applications
http://www.bom.gov.au/fwo/IDW60801/IDW60801.94417.axf

JavaScript Object Notation format (JSON) in row-major order
http://www.bom.gov.au/fwo/IDW60801/IDW60801.94417.json